Time;durP1;ratioP1;P1;durP2;ratioP2;P2;SDS_P1;SDS_P2;PMS_P1;PMS_P2;Temp;Humidity;BMP_temperature;BMP_pressure;BME280_temperature;BME280_humidity;BME280_pressure;Samples;Min_cycle;Max_cycle;Signal;HPM_P1;HPM_P2
2022/05/05 05:26:24;;;;;;;;;;;;;;;15.07;70.23;97098.34;4231535;27;10439;-73
2022/05/05 05:28:26;;;;;;;;;;;;;;;15.32;69.99;97113.56;4227291;28;5786;-73
2022/05/05 05:30:27;;;;;;;;;;;;;;;15.50;69.93;97108.28;4225588;28;5620;-73
2022/05/05 05:32:29;;;;;;;;;;;;;;;15.66;69.82;97112.31;4231690;28;5837;-73
2022/05/05 05:34:31;;;;;;;;;;;;;;;15.77;69.64;97113.47;4227262;28;5879;-73
2022/05/05 05:36:33;;;;;;;;;;;;;;;15.84;69.21;97123.00;4227184;28;5691;-73
2022/05/05 05:38:35;;;;;;;;;;;;;;;15.88;69.25;97126.06;4232153;28;5673;-74
2022/05/05 05:40:37;;;;;;;;;;;;;;;15.95;69.06;97130.31;4232533;28;5087;-73
2022/05/05 05:42:38;;;;;;;;;;;;;;;16.03;69.08;97134.53;4219425;28;5635;-74
2022/05/05 05:44:40;;;;;;;;;;;;;;;16.08;68.88;97131.22;4216565;28;5739;-74
2022/05/05 05:46:42;;;;;;;;;;;;;;;16.10;68.61;97139.84;4229719;28;5783;-73
2022/05/05 05:48:44;;;;;;;;;;;;;;;16.11;68.75;97131.59;4231821;28;5680;-73
2022/05/05 05:50:46;;;;;;;;;;;;;;;16.12;68.52;97138.56;4232004;28;5829;-73
2022/05/05 05:52:48;;;;;;;;;;;;;;;16.15;68.45;97145.31;4228989;28;5794;-74
2022/05/05 05:54:50;;;;;;;;;;;;;;;16.17;68.26;97144.03;4228690;28;5120;-73
2022/05/05 05:56:57;;;;;;;;;;;;;;;16.16;68.22;97138.94;4232491;28;5691;-72
2022/05/05 05:59:01;;;;;;;;;;;;;;;16.13;68.15;97142.88;4232183;28;5680;-73
2022/05/05 06:01:02;;;;;;;;;;;;;;;16.18;68.07;97152.88;4224715;28;5786;-73
2022/05/05 06:05:25;;;;;;;;;;;;;;;16.23;68.05;97155.72;4232138;28;5680;-73
2022/05/05 06:07:29;;;;;;;;;;;;;;;16.22;67.87;97152.22;4232139;28;5673;-73
2022/05/05 06:09:31;;;;;;;;;;;;;;;16.20;68.05;97156.97;4231827;27;5123;-73
2022/05/05 06:11:33;;;;;;;;;;;;;;;16.21;67.88;97155.94;4231767;28;5676;-73
2022/05/05 06:13:35;;;;;;;;;;;;;;;16.21;68.02;97158.59;4232030;28;5665;-73
2022/05/05 06:15:37;;;;;;;;;;;;;;;16.24;67.89;97157.34;4231513;28;5673;-73
2022/05/05 06:17:40;;;;;;;;;;;;;;;16.25;68.07;97154.44;4232233;28;5786;-73
2022/05/05 06:19:43;;;;;;;;;;;;;;;16.25;68.13;97167.78;4231967;28;5749;-73
2022/05/05 06:21:46;;;;;;;;;;;;;;;16.24;68.07;97163.50;4231854;28;5669;-73
2022/05/05 06:23:48;;;;;;;;;;;;;;;16.24;68.09;97168.81;4231948;28;5676;-73
2022/05/05 06:25:49;;;;;;;;;;;;;;;16.26;67.97;97171.25;4228975;28;6451;-72
2022/05/05 06:27:52;;;;;;;;;;;;;;;16.24;67.81;97174.16;4220760;28;5692;-72
2022/05/05 06:29:54;;;;;;;;;;;;;;;16.23;67.81;97172.53;4219169;28;5624;-73
2022/05/05 06:31:55;;;;;;;;;;;;;;;16.24;68.10;97173.34;4220250;28;5665;-73
2022/05/05 06:33:57;;;;;;;;;;;;;;;16.26;68.07;97173.94;4220414;28;5763;-73
2022/05/05 06:35:59;;;;;;;;;;;;;;;16.26;67.87;97180.09;4220434;28;5669;-73
2022/05/05 06:38:01;;;;;;;;;;;;;;;16.29;68.09;97176.97;4219256;28;5739;-73
2022/05/05 06:40:04;;;;;;;;;;;;;;;16.30;67.91;97175.94;4220440;28;5672;-73
2022/05/05 06:42:08;;;;;;;;;;;;;;;16.32;68.10;97180.25;4220344;28;5657;-72
2022/05/05 06:44:10;;;;;;;;;;;;;;;16.33;68.28;97181.88;4220355;28;5665;-73
2022/05/05 06:46:12;;;;;;;;;;;;;;;16.32;68.29;97180.25;4218732;28;5605;-73
2022/05/05 06:48:16;;;;;;;;;;;;;;;16.33;68.14;97190.72;4218967;28;5704;-73
2022/05/05 06:50:21;;;;;;;;;;;;;;;16.34;68.23;97183.50;4220197;28;5796;-73
2022/05/05 06:52:23;;;;;;;;;;;;;;;16.37;68.26;97185.72;4219168;28;5848;-74
2022/05/05 06:54:40;;;;;;;;;;;;;;;16.38;68.47;97190.03;4220443;28;5520;-73
2022/05/05 06:56:42;;;;;;;;;;;;;;;16.38;68.40;97192.69;4220377;28;5657;-73
2022/05/05 06:58:43;;;;;;;;;;;;;;;16.36;68.55;97184.91;4218843;28;5619;-73
2022/05/05 07:03:06;;;;;;;;;;;;;;;16.33;68.51;97189.88;4208498;28;5706;-73
2022/05/05 07:05:23;;;;;;;;;;;;;;;16.30;68.71;97186.59;4219663;28;5677;-73
2022/05/05 07:07:25;;;;;;;;;;;;;;;16.29;68.82;97190.31;4219728;28;5733;-73
2022/05/05 07:11:47;;;;;;;;;;;;;;;16.30;68.72;97194.59;4203745;28;5693;-73
2022/05/05 07:13:49;;;;;;;;;;;;;;;16.32;68.75;97190.94;4202631;28;5686;-74
2022/05/05 07:15:51;;;;;;;;;;;;;;;16.32;68.67;97193.59;4202588;28;5781;-74
2022/05/05 07:17:53;;;;;;;;;;;;;;;16.35;68.84;97198.50;4202913;28;5676;-74
2022/05/05 07:19:56;;;;;;;;;;;;;;;16.35;68.86;97195.81;4201892;28;5719;-74
2022/05/05 07:22:00;;;;;;;;;;;;;;;16.37;68.71;97196.41;4202817;28;5821;-74
2022/05/05 07:24:03;;;;;;;;;;;;;;;16.38;68.69;97200.72;4203128;28;5698;-74
2022/05/05 07:26:05;;;;;;;;;;;;;;;16.38;68.55;97195.38;4202497;28;6375;-74
2022/05/05 07:28:08;;;;;;;;;;;;;;;16.37;68.71;97191.06;4217127;28;5708;-74
2022/05/05 07:30:11;;;;;;;;;;;;;;;16.37;68.62;97199.06;4219735;28;5661;-74
2022/05/05 07:32:20;;;;;;;;;;;;;;;16.37;68.31;97199.06;4219264;28;5752;-74
2022/05/05 07:34:22;;;;;;;;;;;;;;;16.37;68.44;97199.06;4219271;28;5728;-74
2022/05/05 07:36:24;;;;;;;;;;;;;;;16.37;68.45;97196.41;4219246;28;5676;-74
2022/05/05 07:38:26;;;;;;;;;;;;;;;16.36;68.17;97198.25;4218680;28;5676;-74
2022/05/05 07:40:28;;;;;;;;;;;;;;;16.35;68.33;97201.97;4218296;28;5676;-74
2022/05/05 07:42:31;;;;;;;;;;;;;;;16.32;68.33;97199.75;4219258;28;5829;-74
2022/05/05 07:44:33;;;;;;;;;;;;;;;16.32;68.20;97196.25;4219345;28;5767;-73
2022/05/05 07:46:36;;;;;;;;;;;;;;;16.33;68.06;97198.72;4219307;28;5680;-73
2022/05/05 07:48:40;;;;;;;;;;;;;;;16.33;68.10;97203.22;4218989;28;5672;-73
2022/05/05 07:50:43;;;;;;;;;;;;;;;16.32;67.98;97202.41;4217579;28;5695;-74
2022/05/05 07:52:45;;;;;;;;;;;;;;;16.32;67.97;97202.41;4219316;28;5665;-74
2022/05/05 07:54:47;;;;;;;;;;;;;;;16.34;68.07;97199.53;4217727;28;5668;-74
2022/05/05 07:56:51;;;;;;;;;;;;;;;16.36;67.99;97202.78;4218854;28;5669;-73
2022/05/05 07:58:53;;;;;;;;;;;;;;;16.36;67.89;97206.28;4217841;28;5672;-74
2022/05/05 08:00:55;;;;;;;;;;;;;;;16.37;68.01;97209.75;4218877;28;5952;-73
2022/05/05 08:02:57;;;;;;;;;;;;;;;16.35;67.82;97214.50;4219339;28;5668;-73
2022/05/05 08:04:59;;;;;;;;;;;;;;;16.34;68.13;97205.69;4219085;28;5685;-73
2022/05/05 08:07:01;;;;;;;;;;;;;;;16.35;68.15;97206.50;4219383;28;5883;-73
2022/05/05 08:09:03;;;;;;;;;;;;;;;16.37;67.97;97210.56;4218612;28;5689;-73
2022/05/05 08:11:05;;;;;;;;;;;;;;;16.37;68.02;97212.41;4219227;28;5688;-73
2022/05/05 08:13:07;;;;;;;;;;;;;;;16.36;68.10;97208.13;4217862;28;5072;-73
2022/05/05 08:15:10;;;;;;;;;;;;;;;16.36;67.83;97218.78;4217306;28;5649;-74
2022/05/05 08:17:12;;;;;;;;;;;;;;;16.37;67.74;97215.09;4217669;28;5672;-74
2022/05/05 08:19:15;;;;;;;;;;;;;;;16.36;67.80;97216.13;4217869;28;5640;-73
2022/05/05 08:21:17;;;;;;;;;;;;;;;16.35;67.83;97217.16;4219423;28;5695;-73
2022/05/05 08:23:18;;;;;;;;;;;;;;;16.35;67.89;97222.50;4218646;28;5665;-74
2022/05/05 08:30:02;;;;;;;;;;;;;;;16.30;67.79;97226.63;4218975;28;5775;-73
2022/05/05 08:32:04;;;;;;;;;;;;;;;16.29;67.97;97229.50;4218285;28;5680;-73
2022/05/05 08:34:07;;;;;;;;;;;;;;;16.30;67.74;97231.94;4218393;28;5763;-73
2022/05/05 08:36:09;;;;;;;;;;;;;;;16.28;67.62;97220.69;4218544;28;5787;-73
2022/05/05 08:38:11;;;;;;;;;;;;;;;16.26;67.70;97224.63;4218808;28;5938;-73
2022/05/05 08:40:13;;;;;;;;;;;;;;;16.23;67.85;97230.41;4218465;28;5680;-73
2022/05/05 08:42:15;;;;;;;;;;;;;;;16.23;67.88;97231.22;4218860;28;5668;-73
2022/05/05 08:44:16;;;;;;;;;;;;;;;16.24;67.99;97238.19;4217285;28;6359;-73
2022/05/05 08:46:22;;;;;;;;;;;;;;;16.27;67.99;97231.59;4218233;28;5694;-73
2022/05/05 08:48:24;;;;;;;;;;;;;;;16.30;68.09;97234.63;4218510;28;5680;-73
2022/05/05 08:50:26;;;;;;;;;;;;;;;16.34;67.58;97240.34;4218017;28;5680;-73
2022/05/05 08:52:40;;;;;;;;;;;;;;;16.35;67.78;97241.16;4218363;28;5669;-73
2022/05/05 08:54:42;;;;;;;;;;;;;;;16.37;67.74;97237.25;4218315;28;6349;-73
2022/05/05 08:56:48;;;;;;;;;;;;;;;16.38;67.57;97238.88;4218102;28;5677;-74
2022/05/05 08:58:52;;;;;;;;;;;;;;;16.38;67.48;97246.06;4218572;28;5664;-73
2022/05/05 09:00:53;;;;;;;;;;;;;;;16.36;67.70;97240.94;4218023;28;5819;-73
2022/05/05 09:02:57;;;;;;;;;;;;;;;16.36;67.71;97242.81;4218277;28;5668;-74
2022/05/05 09:04:59;;;;;;;;;;;;;;;16.36;67.88;97251.63;4218543;28;5660;-73
2022/05/05 09:07:01;;;;;;;;;;;;;;;16.38;67.93;97248.72;4218328;28;5764;-73
2022/05/05 09:09:02;;;;;;;;;;;;;;;16.39;67.80;97250.38;4200248;28;5695;-73
2022/05/05 09:11:06;;;;;;;;;;;;;;;16.37;68.01;97252.44;4217116;28;5697;-73
2022/05/05 09:13:08;;;;;;;;;;;;;;;16.37;68.05;97252.44;4218210;28;5676;-73
2022/05/05 09:15:10;;;;;;;;;;;;;;;16.39;67.83;97253.84;4218093;28;5673;-73
2022/05/05 09:17:15;;;;;;;;;;;;;;;16.36;67.87;97254.28;4217885;28;5729;-73
2022/05/05 09:19:18;;;;;;;;;;;;;;;16.36;68.06;97258.81;4218387;28;5767;-73
2022/05/05 09:21:32;;;;;;;;;;;;;;;16.38;67.95;97264.75;4218343;28;5712;-73
2022/05/05 09:23:36;;;;;;;;;;;;;;;16.40;67.85;97257.34;4218201;28;5676;-73
2022/05/05 09:25:47;;;;;;;;;;;;;;;16.38;67.89;97257.56;4217778;28;6402;-73
2022/05/05 09:27:51;;;;;;;;;;;;;;;16.40;67.70;97262.66;4217800;28;5672;-74
2022/05/05 09:29:56;;;;;;;;;;;;;;;16.43;67.75;97264.94;4218339;28;6410;-73
2022/05/05 09:31:58;;;;;;;;;;;;;;;16.43;67.63;97270.25;4217888;28;5684;-73
2022/05/05 09:33:59;;;;;;;;;;;;;;;16.42;67.69;97268.59;4217810;28;5680;-73
2022/05/05 09:36:07;;;;;;;;;;;;;;;16.42;67.73;97266.78;4218256;28;5688;-73
2022/05/05 09:38:09;;;;;;;;;;;;;;;16.45;67.48;97265.50;4218101;28;5684;-73
2022/05/05 09:40:14;;;;;;;;;;;;;;;16.46;67.57;97272.47;4217781;28;7030;-73
2022/05/05 09:42:35;;;;;;;;;;;;;;;16.45;67.53;97269.00;4218029;28;5684;-73
2022/05/05 09:44:45;;;;;;;;;;;;;;;16.45;67.74;97273.53;4216872;28;5687;-73
2022/05/05 09:46:48;;;;;;;;;;;;;;;16.44;67.84;97277.22;4217315;28;5662;-73
2022/05/05 09:48:50;;;;;;;;;;;;;;;16.44;67.92;97280.72;4218057;28;5073;-73
2022/05/05 09:50:53;;;;;;;;;;;;;;;16.43;67.73;97280.94;4217931;28;5669;-73
2022/05/05 09:57:41;;;;;;;;;;;;;;;16.37;68.28;97287.94;4217883;28;5704;-73
2022/05/05 09:59:47;;;;;;;;;;;;;;;16.35;68.09;97290.00;4218261;28;5073;-73
2022/05/05 10:01:51;;;;;;;;;;;;;;;16.37;68.19;97295.13;4219266;28;5653;-72
2022/05/05 10:04:01;;;;;;;;;;;;;;;16.35;68.04;97291.88;4220843;28;5692;-73
2022/05/05 10:06:03;;;;;;;;;;;;;;;16.35;68.17;97297.22;4220317;28;6421;-74
2022/05/05 10:08:06;;;;;;;;;;;;;;;16.35;68.14;97292.69;4221107;28;5778;-73
2022/05/05 10:10:08;;;;;;;;;;;;;;;16.35;68.18;97297.22;4220850;28;5789;-73
2022/05/05 10:12:10;;;;;;;;;;;;;;;16.36;68.12;97299.66;4221369;28;5783;-74
2022/05/05 10:14:16;;;;;;;;;;;;;;;16.39;68.14;97299.22;4220779;28;5760;-74
2022/05/05 10:16:20;;;;;;;;;;;;;;;16.41;67.96;97297.13;4220663;28;5676;-74
2022/05/05 10:18:23;;;;;;;;;;;;;;;16.44;68.04;97302.06;4219337;28;5696;-74
2022/05/05 10:20:25;;;;;;;;;;;;;;;16.46;68.13;97296.50;4221062;28;6334;-74
2022/05/05 10:22:39;;;;;;;;;;;;;;;16.47;67.98;97300.81;4220904;28;5751;-74
2022/05/05 10:25:05;;;;;;;;;;;;;;;16.46;68.21;97296.50;4220544;28;5759;-74
2022/05/05 10:27:10;;;;;;;;;;;;;;;16.47;68.23;97298.13;4220250;28;5661;-74
2022/05/05 10:29:30;;;;;;;;;;;;;;;16.49;68.25;97298.72;4220635;28;5688;-74
2022/05/05 10:31:37;;;;;;;;;;;;;;;16.50;68.38;97313.69;4218936;28;6489;-74
2022/05/05 10:33:58;;;;;;;;;;;;;;;16.49;68.42;97302.22;4220904;28;5697;-74
2022/05/05 10:36:23;;;;;;;;;;;;;;;16.51;68.57;97312.66;4220886;28;5871;-74
2022/05/05 10:38:47;;;;;;;;;;;;;;;16.50;68.56;97308.34;4220878;28;5669;-74
2022/05/05 10:40:49;;;;;;;;;;;;;;;16.49;68.68;97309.41;4220572;28;6470;-74
2022/05/05 10:42:51;;;;;;;;;;;;;;;16.50;68.52;97311.03;4220341;28;5771;-74
2022/05/05 10:45:27;;;;;;;;;;;;;;;16.45;68.88;97306.34;4220645;28;5729;-74
2022/05/05 10:48:06;;;;;;;;;;;;;;;16.43;68.81;97308.44;4218742;28;5681;-74
2022/05/05 10:50:29;;;;;;;;;;;;;;;16.42;68.78;97303.28;4219734;28;5679;-74
2022/05/05 10:52:31;;;;;;;;;;;;;;;16.41;68.95;97296.31;4220105;28;6641;-74
2022/05/05 10:54:34;;;;;;;;;;;;;;;16.39;69.07;97301.06;4220339;28;5764;-74
2022/05/05 10:56:39;;;;;;;;;;;;;;;16.41;68.99;97307.00;4219417;28;5689;-74
2022/05/05 10:59:00;;;;;;;;;;;;;;;16.39;69.06;97307.22;4219080;28;5802;-74
2022/05/05 11:01:09;;;;;;;;;;;;;;;16.33;69.21;97301.94;4220257;28;5684;-73
2022/05/05 11:03:15;;;;;;;;;;;;;;;16.35;69.16;97307.88;4220049;28;5770;-73
2022/05/05 11:05:28;;;;;;;;;;;;;;;16.38;68.93;97302.09;4220602;28;5757;-73
2022/05/05 11:07:32;;;;;;;;;;;;;;;16.36;69.10;97310.31;4219119;28;5656;-74
2022/05/05 11:09:37;;;;;;;;;;;;;;;16.39;68.92;97306.41;4219595;28;6449;-74
2022/05/05 11:11:42;;;;;;;;;;;;;;;16.43;68.89;97307.63;4220196;28;6353;-74
2022/05/05 11:13:46;;;;;;;;;;;;;;;16.42;68.97;97306.81;4218896;28;5616;-74
2022/05/05 11:22:56;;;;;;;;;;;;;;;16.40;68.76;97310.69;4219713;28;5672;-74
2022/05/05 11:25:01;;;;;;;;;;;;;;;16.40;69.05;97319.53;4219496;28;6286;-74
2022/05/05 11:27:04;;;;;;;;;;;;;;;16.42;68.86;97311.28;4219592;28;5759;-74
2022/05/05 11:29:15;;;;;;;;;;;;;;;16.43;68.86;97304.94;4218289;28;5767;-75
2022/05/05 11:31:19;;;;;;;;;;;;;;;16.42;68.74;97303.28;4219641;28;5783;-73
2022/05/05 11:33:21;;;;;;;;;;;;;;;16.40;68.90;97308.84;4219771;28;5751;-75
2022/05/05 11:35:23;;;;;;;;;;;;;;;16.40;68.92;97305.38;4219802;28;5081;-74
2022/05/05 11:37:27;;;;;;;;;;;;;;;16.39;68.80;97307.22;4219835;28;5781;-74
2022/05/05 11:39:30;;;;;;;;;;;;;;;16.43;68.68;97307.63;4217445;28;5676;-74
2022/05/05 11:41:32;;;;;;;;;;;;;;;16.49;68.59;97314.75;4217114;28;5663;-75
2022/05/05 11:45:55;;;;;;;;;;;;;;;16.57;68.29;97303.78;4202011;28;5725;-74
2022/05/05 11:47:56;;;;;;;;;;;;;;;16.56;68.47;97302.97;4214861;28;5694;-74
2022/05/05 11:49:59;;;;;;;;;;;;;;;16.56;68.36;97307.50;4201221;28;5798;-74
2022/05/05 11:52:02;;;;;;;;;;;;;;;16.56;68.46;97297.66;4202554;28;5797;-74
2022/05/05 11:54:06;;;;;;;;;;;;;;;16.60;68.47;97306.03;4205345;28;5877;-74
2022/05/05 11:56:12;;;;;;;;;;;;;;;16.64;68.24;97301.88;4214410;28;5657;-74
2022/05/05 12:03:04;;;;;;;;;;;;;;;16.56;68.18;97308.31;4208072;28;5675;-73
2022/05/05 12:05:08;;;;;;;;;;;;;;;16.59;67.93;97289.19;4213397;28;5628;-73
2022/05/05 12:07:19;;;;;;;;;;;;;;;16.60;68.20;97295.34;4215076;28;5752;-73
2022/05/05 12:09:25;;;;;;;;;;;;;;;16.54;68.20;97302.38;4210697;28;5835;-73
2022/05/05 12:11:33;;;;;;;;;;;;;;;16.56;68.15;97299.50;4209088;28;5631;-73
2022/05/05 12:13:37;;;;;;;;;;;;;;;16.57;68.03;97307.28;4206840;28;5714;-73
2022/05/05 12:15:39;;;;;;;;;;;;;;;16.59;68.17;97293.72;4201276;28;6363;-74
2022/05/05 12:17:50;;;;;;;;;;;;;;;16.61;67.83;97313.00;4205960;28;5862;-73
2022/05/05 12:19:55;;;;;;;;;;;;;;;16.63;67.77;97302.91;4213554;28;5720;-73
2022/05/05 12:21:57;;;;;;;;;;;;;;;16.60;67.51;97303.34;4208621;28;5787;-73
2022/05/05 12:24:02;;;;;;;;;;;;;;;16.57;67.79;97301.94;4205259;28;5724;-73
2022/05/05 12:26:04;;;;;;;;;;;;;;;16.55;67.65;97303.19;4212580;28;5878;-73
2022/05/05 12:28:08;;;;;;;;;;;;;;;16.54;67.82;97312.25;4209588;28;5815;-73
2022/05/05 12:30:12;;;;;;;;;;;;;;;16.53;67.71;97313.25;4210568;28;5736;-74
2022/05/05 12:32:17;;;;;;;;;;;;;;;16.51;67.91;97308.13;4207137;28;5900;-73
2022/05/05 12:34:25;;;;;;;;;;;;;;;16.47;67.80;97312.28;4202669;28;5679;-73
2022/05/05 12:36:28;;;;;;;;;;;;;;;16.46;67.66;97309.84;4202330;28;5701;-73
2022/05/05 12:38:33;;;;;;;;;;;;;;;16.47;67.57;97308.81;4200847;28;5714;-73
2022/05/05 12:40:40;;;;;;;;;;;;;;;16.44;67.53;97311.91;4215050;28;5676;-74
2022/05/05 12:42:47;;;;;;;;;;;;;;;16.45;67.42;97309.03;4213084;28;5687;-73
2022/05/05 12:44:49;;;;;;;;;;;;;;;16.46;67.39;97305.31;4216202;28;6357;-74
2022/05/05 12:46:51;;;;;;;;;;;;;;;16.50;67.44;97305.69;4216460;28;6337;-73
2022/05/05 12:48:53;;;;;;;;;;;;;;;16.51;67.23;97308.13;4217252;28;5616;-73
2022/05/05 12:50:55;;;;;;;;;;;;;;;16.52;67.33;97301.75;4217549;28;5657;-73
2022/05/05 13:00:16;;;;;;;;;;;;;;;16.64;66.81;97307.22;4148815;28;6417;-73
2022/05/05 13:02:38;;;;;;;;;;;;;;;16.63;66.81;97310.91;4163355;28;5696;-73
2022/05/05 13:04:48;;;;;;;;;;;;;;;16.66;66.74;97315.84;4164417;28;5705;-73
2022/05/05 13:06:51;;;;;;;;;;;;;;;16.66;66.81;97321.19;4165305;28;5684;-73
2022/05/05 13:08:54;;;;;;;;;;;;;;;16.68;66.76;97318.31;4163801;28;5686;-73
2022/05/05 13:10:55;;;;;;;;;;;;;;;16.67;66.51;97317.47;4164719;28;5701;-74
2022/05/05 13:12:57;;;;;;;;;;;;;;;16.66;66.44;97326.50;4165062;28;5856;-73
2022/05/05 13:14:58;;;;;;;;;;;;;;;16.66;66.48;97315.03;4157149;28;5799;-73
2022/05/05 13:17:01;;;;;;;;;;;;;;;16.65;66.39;97319.53;4161077;28;5895;-74
2022/05/05 13:19:04;;;;;;;;;;;;;;;16.68;66.30;97321.00;4157452;28;5711;-73
2022/05/05 13:21:06;;;;;;;;;;;;;;;16.71;66.34;97316.00;4150759;28;5712;-74
2022/05/05 13:23:08;;;;;;;;;;;;;;;16.73;66.37;97315.78;4152460;28;5715;-73
2022/05/05 13:25:10;;;;;;;;;;;;;;;16.72;66.29;97309.63;4149433;28;5720;-73
2022/05/05 13:27:12;;;;;;;;;;;;;;;16.75;66.22;97313.72;4155420;28;5691;-73
2022/05/05 13:29:14;;;;;;;;;;;;;;;16.77;66.34;97315.16;4158063;28;5796;-73
2022/05/05 13:31:17;;;;;;;;;;;;;;;16.78;66.29;97310.63;4157739;28;5361;-73
2022/05/05 13:33:19;;;;;;;;;;;;;;;16.83;66.15;97314.25;4157790;28;7699;-73
2022/05/05 13:35:21;;;;;;;;;;;;;;;16.85;65.94;97317.53;4167291;28;5867;-73
2022/05/05 13:37:22;;;;;;;;;;;;;;;16.85;65.96;97312.19;4211890;28;5673;-73
2022/05/05 13:39:26;;;;;;;;;;;;;;;16.90;65.71;97310.72;4217802;28;5732;-73
2022/05/05 13:41:28;;;;;;;;;;;;;;;16.93;65.71;97315.63;4211734;28;5718;-74
2022/05/05 13:43:30;;;;;;;;;;;;;;;16.95;65.45;97306.34;4203176;28;5836;-73
2022/05/05 13:45:32;;;;;;;;;;;;;;;16.98;65.47;97313.09;4204212;28;5690;-73
2022/05/05 13:47:35;;;;;;;;;;;;;;;17.00;65.44;97317.19;4207558;28;5782;-73
2022/05/05 13:49:37;;;;;;;;;;;;;;;17.03;65.29;97305.25;4211905;28;5763;-73
2022/05/05 13:51:39;;;;;;;;;;;;;;;17.08;65.18;97302.72;4204129;28;5733;-73
2022/05/05 13:54:01;;;;;;;;;;;;;;;17.08;65.01;97298.19;4212266;28;5759;-73
2022/05/05 13:56:04;;;;;;;;;;;;;;;17.10;64.77;97303.31;4215661;28;5764;-73
2022/05/05 13:58:06;;;;;;;;;;;;;;;17.10;65.11;97301.47;4207130;28;6553;-73
2022/05/05 14:00:09;;;;;;;;;;;;;;;17.11;64.95;97303.09;4211147;28;5709;-73
2022/05/05 14:02:13;;;;;;;;;;;;;;;17.07;65.09;97301.06;4211057;28;5665;-73
2022/05/05 14:04:15;;;;;;;;;;;;;;;17.09;64.96;97304.34;4203896;28;5758;-74
2022/05/05 14:06:17;;;;;;;;;;;;;;;17.07;65.15;97306.41;4210177;28;5692;-74
2022/05/05 14:13:01;;;;;;;;;;;;;;;16.96;65.31;97307.97;4212065;28;5783;-73
2022/05/05 14:15:04;;;;;;;;;;;;;;;16.97;65.30;97306.13;4205426;28;5867;-73
2022/05/05 14:17:06;;;;;;;;;;;;;;;16.94;65.31;97306.56;4218625;28;5856;-74
2022/05/05 14:19:07;;;;;;;;;;;;;;;16.94;65.19;97306.56;4219822;28;5688;-74
2022/05/05 14:21:10;;;;;;;;;;;;;;;16.92;65.37;97309.47;4211089;28;5728;-74
2022/05/05 14:23:11;;;;;;;;;;;;;;;16.94;65.11;97306.56;4223365;28;6303;-74
2022/05/05 14:25:13;;;;;;;;;;;;;;;16.95;65.03;97302.84;4207907;28;5676;-74
2022/05/05 14:27:15;;;;;;;;;;;;;;;16.99;65.22;97309.38;4212994;28;5825;-74
2022/05/05 14:29:17;;;;;;;;;;;;;;;16.96;65.18;97304.47;4212076;28;5621;-73
2022/05/05 14:31:19;;;;;;;;;;;;;;;16.96;65.13;97307.16;4204598;28;5792;-73
2022/05/05 14:33:21;;;;;;;;;;;;;;;16.96;65.19;97310.63;4217775;28;5712;-73
2022/05/05 14:35:23;;;;;;;;;;;;;;;16.98;64.99;97313.09;4217723;28;5769;-73
2022/05/05 14:37:25;;;;;;;;;;;;;;;16.99;65.00;97314.72;4203137;28;5753;-73
2022/05/05 14:39:27;;;;;;;;;;;;;;;16.96;65.09;97315.16;4208366;28;5709;-73
2022/05/05 14:41:31;;;;;;;;;;;;;;;16.95;65.38;97309.00;4216031;28;5755;-73
2022/05/05 14:43:32;;;;;;;;;;;;;;;16.96;65.06;97312.50;4218470;28;5073;-72
2022/05/05 14:45:34;;;;;;;;;;;;;;;16.94;65.25;97312.72;4216896;28;5861;-73
2022/05/05 14:47:38;;;;;;;;;;;;;;;16.96;65.19;97315.16;4213344;28;5770;-73
2022/05/05 14:49:40;;;;;;;;;;;;;;;16.96;65.16;97312.50;4213568;28;5768;-73
2022/05/05 14:51:42;;;;;;;;;;;;;;;16.93;65.08;97310.28;4212849;28;5739;-73
2022/05/05 14:53:44;;;;;;;;;;;;;;;16.90;65.15;97310.72;4196169;28;5738;-74
2022/05/05 14:55:46;;;;;;;;;;;;;;;16.89;65.27;97315.25;4202026;28;5909;-73
2022/05/05 14:57:48;;;;;;;;;;;;;;;16.87;65.33;97314.63;4217264;28;6493;-73
2022/05/05 14:59:50;;;;;;;;;;;;;;;16.90;65.26;97316.06;4218624;28;5855;-74
2022/05/05 15:01:52;;;;;;;;;;;;;;;16.93;65.36;97308.41;4214596;28;5730;-74
2022/05/05 15:03:54;;;;;;;;;;;;;;;16.96;65.38;97317.84;4216681;28;5780;-74
2022/05/05 15:05:56;;;;;;;;;;;;;;;16.97;65.38;97312.28;4221155;28;5785;-74
2022/05/05 15:08:02;;;;;;;;;;;;;;;16.98;65.14;97305.88;4216271;28;5760;-74
2022/05/05 15:10:04;;;;;;;;;;;;;;;16.93;65.23;97310.28;4216876;28;5382;-74
2022/05/05 15:12:08;;;;;;;;;;;;;;;16.90;65.40;97310.72;4214933;28;7719;-74
2022/05/05 15:14:10;;;;;;;;;;;;;;;16.90;65.56;97311.53;4201929;28;5763;-74
2022/05/05 15:16:13;;;;;;;;;;;;;;;16.92;65.66;97314.81;4214677;28;5751;-74
2022/05/05 15:18:15;;;;;;;;;;;;;;;16.90;65.55;97316.88;4215356;28;5722;-74
2022/05/05 15:20:17;;;;;;;;;;;;;;;16.85;65.54;97314.84;4216883;28;5799;-74
2022/05/05 15:22:19;;;;;;;;;;;;;;;16.82;65.52;97314.47;4217106;28;5810;-74
2022/05/05 15:24:21;;;;;;;;;;;;;;;16.79;65.67;97318.41;4215077;28;5727;-74
2022/05/05 15:26:23;;;;;;;;;;;;;;;16.85;65.88;97320.19;4215972;28;5767;-74
2022/05/05 15:28:25;;;;;;;;;;;;;;;16.91;65.65;97317.69;4216636;28;5764;-74
2022/05/05 15:30:26;;;;;;;;;;;;;;;16.95;65.64;97316.22;4214459;28;5731;-73
2022/05/05 15:32:31;;;;;;;;;;;;;;;16.99;65.58;97318.22;4209367;28;5773;-73
2022/05/05 15:34:33;;;;;;;;;;;;;;;17.03;65.79;97318.59;4216557;28;5756;-73
2022/05/05 15:36:35;;;;;;;;;;;;;;;17.06;65.75;97313.63;4216543;28;5866;-73
2022/05/05 15:38:37;;;;;;;;;;;;;;;17.04;65.53;97310.34;4216653;28;5775;-61
2022/05/05 15:40:38;;;;;;;;;;;;;;;17.05;65.67;97311.19;4216028;28;5775;-59
2022/05/05 15:42:40;;;;;;;;;;;;;;;17.04;65.49;97314.88;4212588;28;5771;-59
2022/05/05 15:44:43;;;;;;;;;;;;;;;16.99;65.65;97312.03;4215525;28;5801;-59
2022/05/05 15:46:44;;;;;;;;;;;;;;;16.96;65.71;97315.16;4214365;28;5775;-59
2022/05/05 15:48:46;;;;;;;;;;;;;;;16.88;65.80;97316.28;4215523;28;6410;-59
2022/05/05 15:50:48;;;;;;;;;;;;;;;16.82;65.79;97317.16;4216332;28;5768;-78
2022/05/05 15:52:52;;;;;;;;;;;;;;;16.75;65.79;97309.19;4216332;28;5885;-78
2022/05/05 15:54:54;;;;;;;;;;;;;;;16.72;65.87;97309.63;4215717;28;5821;-75
2022/05/05 15:56:56;;;;;;;;;;;;;;;16.71;65.90;97312.53;4202604;28;7740;-76
2022/05/05 15:58:58;;;;;;;;;;;;;;;16.68;65.94;97319.13;4215159;28;5974;-77
2022/05/05 16:01:07;;;;;;;;;;;;;;;16.67;65.77;97316.66;4208622;28;8302;-76
2022/05/05 16:03:09;;;;;;;;;;;;;;;16.66;65.88;97312.34;4200488;28;5693;-76
2022/05/05 16:05:12;;;;;;;;;;;;;;;16.60;65.85;97311.34;4204101;28;5775;-75
2022/05/05 16:07:15;;;;;;;;;;;;;;;16.55;65.90;97311.22;4215226;28;5811;-76
2022/05/05 16:09:17;;;;;;;;;;;;;;;16.51;65.94;97310.00;4213254;28;5739;-77
2022/05/05 16:11:21;;;;;;;;;;;;;;;16.50;65.94;97311.03;4216517;28;5888;-76
2022/05/05 16:13:23;;;;;;;;;;;;;;;16.46;65.75;97312.50;4216330;28;5779;-77
2022/05/05 16:15:25;;;;;;;;;;;;;;;16.40;65.88;97316.03;4214704;28;5731;-76
2022/05/05 16:17:27;;;;;;;;;;;;;;;16.38;65.93;97312.78;4214519;28;6394;-76
2022/05/05 16:19:29;;;;;;;;;;;;;;;16.38;66.03;97312.78;4214926;28;5680;-76
2022/05/05 16:21:31;;;;;;;;;;;;;;;16.36;66.05;97312.19;4216744;28;5759;-77
2022/05/05 16:23:33;;;;;;;;;;;;;;;16.35;65.86;97313.22;4216370;28;5693;-77
2022/05/05 16:30:16;;;;;;;;;;;;;;;16.28;66.21;97302.56;4213339;28;5624;-78
2022/05/05 16:32:23;;;;;;;;;;;;;;;16.26;66.11;97302.81;4216060;28;5784;-77
2022/05/05 16:34:25;;;;;;;;;;;;;;;16.24;66.13;97304.06;4215362;28;5752;-77
2022/05/05 16:36:27;;;;;;;;;;;;;;;16.22;66.24;97309.59;4216515;28;5819;-76
2022/05/05 16:38:30;;;;;;;;;;;;;;;16.21;66.35;97304.50;4212861;28;6402;-77
2022/05/05 16:40:34;;;;;;;;;;;;;;;16.19;66.33;97307.34;4199506;28;5807;-77
2022/05/05 16:42:36;;;;;;;;;;;;;;;16.17;66.36;97306.75;4211698;28;5616;-77
2022/05/05 16:44:38;;;;;;;;;;;;;;;16.16;66.35;97305.13;4217826;28;6865;-77
2022/05/05 16:46:39;;;;;;;;;;;;;;;16.15;66.30;97302.69;4217684;28;6519;-77
2022/05/05 16:48:41;;;;;;;;;;;;;;;16.12;66.36;97301.25;4218377;28;5763;-76
2022/05/05 16:50:51;;;;;;;;;;;;;;;16.16;66.31;97304.31;4215596;28;5780;-77
2022/05/05 16:52:53;;;;;;;;;;;;;;;16.13;66.28;97304.75;4215725;28;5775;-77
2022/05/05 16:54:54;;;;;;;;;;;;;;;16.10;66.35;97303.34;4215906;28;5756;-76
2022/05/05 16:56:56;;;;;;;;;;;;;;;16.09;66.22;97308.88;4215505;28;6552;-77
2022/05/05 16:58:58;;;;;;;;;;;;;;;16.05;66.27;97307.66;4214200;28;7865;-78
2022/05/05 17:01:02;;;;;;;;;;;;;;;16.04;66.39;97306.84;4211052;28;6020;-76
2022/05/05 17:03:07;;;;;;;;;;;;;;;16.02;66.48;97308.91;4215501;28;5730;-76
2022/05/05 17:05:08;;;;;;;;;;;;;;;16.02;66.35;97314.25;4214978;28;5755;-77
2022/05/05 17:07:11;;;;;;;;;;;;;;;16.00;66.46;97311.00;4214387;28;5640;-77